Time;durP1;ratioP1;P1;durP2;ratioP2;P2;SDS_P1;SDS_P2;PMS_P1;PMS_P2;Temp;Humidity;BMP_temperature;BMP_pressure;BME280_temperature;BME280_humidity;BME280_pressure;Samples;Min_cycle;Max_cycle;Signal;HPM_P1;HPM_P2
2021/07/13 00:01:51;;;;;;;5.47;1.20;;;24.80;40.90;;;;;;4315778;33;20090;-36
2021/07/13 00:04:18;;;;;;;3.33;1.10;;;24.80;41.00;;;;;;4319202;33;20102;-36
2021/07/13 00:06:44;;;;;;;2.00;1.00;;;24.80;41.10;;;;;;4345185;33;20067;-37
2021/07/13 00:09:10;;;;;;;5.55;1.12;;;24.80;41.30;;;;;;4331413;33;20079;-35
2021/07/13 00:11:37;;;;;;;3.37;1.10;;;24.80;41.40;;;;;;4345015;33;20063;-36
2021/07/13 00:14:05;;;;;;;4.65;1.15;;;24.70;41.50;;;;;;4300894;33;20091;-37
2021/07/13 00:16:32;;;;;;;5.62;1.17;;;24.60;41.70;;;;;;4301389;33;20086;-37
2021/07/13 00:18:59;;;;;;;3.92;1.10;;;24.40;42.10;;;;;;4301151;33;20448;-35
2021/07/13 00:21:26;;;;;;;2.50;1.10;;;24.30;42.40;;;;;;4313452;33;20497;-36
2021/07/13 00:23:52;;;;;;;3.33;1.00;;;24.20;42.90;;;;;;4289143;33;20153;-36
2021/07/13 00:26:19;;;;;;;3.12;1.00;;;24.20;43.10;;;;;;4301016;33;20276;-36
2021/07/13 00:28:45;;;;;;;3.10;1.00;;;24.20;43.30;;;;;;4312808;33;20114;-36
2021/07/13 00:31:11;;;;;;;2.37;1.00;;;24.20;43.20;;;;;;4300900;33;20068;-36
2021/07/13 00:33:38;;;;;;;2.17;1.23;;;24.20;43.20;;;;;;4300706;33;20564;-36
2021/07/13 00:36:04;;;;;;;4.40;1.00;;;24.20;43.20;;;;;;4312946;33;20103;-36
2021/07/13 00:38:31;;;;;;;8.25;2.03;;;24.20;43.30;;;;;;4289011;33;20074;-36
2021/07/13 00:40:57;;;;;;;3.85;1.00;;;24.10;43.70;;;;;;4313088;33;20067;-37
2021/07/13 00:43:24;;;;;;;8.88;1.50;;;24.00;44.50;;;;;;4312716;33;20098;-36
2021/07/13 00:45:50;;;;;;;1.87;1.15;;;23.90;44.20;;;;;;4328401;33;20145;-36
2021/07/13 00:48:19;;;;;;;3.58;1.20;;;23.80;44.80;;;;;;4344559;33;20550;-35
2021/07/13 00:50:45;;;;;;;4.22;1.45;;;23.80;44.90;;;;;;4318525;33;20079;-36
2021/07/13 00:53:11;;;;;;;2.28;1.30;;;23.80;44.90;;;;;;4318826;33;20062;-36
2021/07/13 00:55:38;;;;;;;6.60;1.20;;;23.80;45.40;;;;;;4330931;33;20063;-35
2021/07/13 00:58:05;;;;;;;6.32;1.33;;;23.70;45.70;;;;;;4344508;33;20070;-36
2021/07/13 01:00:32;;;;;;;4.20;1.60;;;23.70;45.80;;;;;;4344524;32;20155;-36
2021/07/13 01:03:01;;;;;;;1.95;1.00;;;23.70;45.80;;;;;;4344314;32;20191;-37
2021/07/13 01:05:52;;;;;;;4.05;1.87;;;23.70;46.00;;;;;;4318531;33;20090;-37
2021/07/13 01:09:21;;;;;;;3.28;1.00;;;23.70;46.20;;;;;;4356529;32;20075;-37
2021/07/13 01:12:01;;;;;;;3.17;0.90;;;23.80;46.40;;;;;;4327279;33;20195;-37
2021/07/13 01:14:28;;;;;;;2.78;1.20;;;24.00;46.30;;;;;;4316113;33;20051;-36
2021/07/13 01:17:01;;;;;;;24.12;5.53;;;24.10;46.40;;;;;;4315047;33;20078;-37
2021/07/13 01:19:33;;;;;;;7.40;2.08;;;24.20;46.50;;;;;;4327140;33;20071;-37
2021/07/13 01:22:13;;;;;;;6.87;2.12;;;24.30;46.50;;;;;;4327543;33;20063;-39
2021/07/13 01:25:11;;;;;;;3.45;1.12;;;24.40;46.50;;;;;;4314855;33;20067;-36
2021/07/13 01:27:48;;;;;;;4.18;1.45;;;24.50;46.40;;;;;;4315824;33;20086;-35
2021/07/13 01:30:27;;;;;;;5.75;2.53;;;24.60;46.20;;;;;;4327247;33;20691;-36
2021/07/13 01:33:03;;;;;;;6.25;1.27;;;24.80;46.40;;;;;;4302894;33;20184;-36
2021/07/13 01:36:11;;;;;;;4.60;1.37;;;24.90;46.40;;;;;;4315372;33;20173;-36
2021/07/13 01:38:40;;;;;;;3.50;2.15;;;25.00;46.40;;;;;;4318704;33;20059;-37
2021/07/13 01:41:13;;;;;;;9.88;2.03;;;25.10;46.10;;;;;;4314978;33;20084;-37
2021/07/13 01:43:41;;;;;;;10.07;1.73;;;25.30;46.30;;;;;;4326836;33;20091;-37
2021/07/13 01:46:08;;;;;;;12.85;3.33;;;25.40;46.70;;;;;;4336190;32;20054;-36
2021/07/13 01:48:34;;;;;;;15.43;3.70;;;25.70;45.90;;;;;;4332377;32;20155;-36
2021/07/13 01:51:01;;;;;;;20.75;5.80;;;25.90;45.70;;;;;;4332623;32;20073;-36
2021/07/13 01:53:28;;;;;;;21.40;3.78;;;26.20;45.60;;;;;;4320537;32;20055;-37
2021/07/13 01:55:55;;;;;;;8.82;3.53;;;26.50;46.20;;;;;;4358516;32;20202;-36
2021/07/13 01:58:25;;;;;;;14.38;3.58;;;26.90;45.20;;;;;;4349093;32;20504;-36
2021/07/13 02:00:53;;;;;;;16.90;3.40;;;27.20;45.00;;;;;;4330495;33;20050;-36
2021/07/13 02:03:24;;;;;;;11.85;2.25;;;27.60;45.60;;;;;;4343431;33;20479;-36
2021/07/13 02:05:51;;;;;;;4.85;1.52;;;27.90;44.70;;;;;;4329786;33;20520;-36
2021/07/13 02:08:17;;;;;;;5.18;1.20;;;28.30;45.00;;;;;;4330027;33;20059;-36
2021/07/13 02:10:44;;;;;;;4.12;0.90;;;28.50;45.10;;;;;;4305477;33;20216;-37
2021/07/13 02:13:11;;;;;;;3.72;0.88;;;28.70;45.20;;;;;;4317644;33;20102;-37
2021/07/13 02:15:38;;;;;;;6.07;0.90;;;28.90;45.30;;;;;;4329353;33;20129;-36
2021/07/13 02:18:05;;;;;;;4.97;1.15;;;29.00;45.30;;;;;;4343514;33;20074;-36
2021/07/13 02:20:31;;;;;;;4.75;1.17;;;29.00;45.30;;;;;;4343614;33;20062;-36
2021/07/13 02:22:58;;;;;;;4.78;1.12;;;29.20;45.30;;;;;;4329785;33;20131;-36
2021/07/13 02:25:24;;;;;;;3.87;0.90;;;29.20;45.20;;;;;;4317065;33;20652;-36
2021/07/13 02:28:33;;;;;;;9.93;1.40;;;29.30;45.10;;;;;;4329508;33;20475;-36
2021/07/13 02:31:11;;;;;;;2.25;0.70;;;29.50;45.00;;;;;;4343033;33;20055;-37
2021/07/13 02:33:52;;;;;;;2.10;0.80;;;29.60;44.60;;;;;;4318460;33;20559;-37
2021/07/13 02:36:20;;;;;;;2.25;0.68;;;29.70;44.30;;;;;;4330503;33;20070;-37
2021/07/13 02:38:47;;;;;;;10.30;1.55;;;29.80;44.10;;;;;;4329394;33;20074;-36
2021/07/13 02:41:17;;;;;;;2.65;0.70;;;30.00;44.00;;;;;;4329029;33;20601;-37
2021/07/13 02:43:44;;;;;;;5.07;1.08;;;30.20;43.50;;;;;;4301804;33;20117;-35
2021/07/13 02:46:10;;;;;;;4.68;1.25;;;30.30;43.20;;;;;;4313598;33;20066;-35
2021/07/13 02:48:37;;;;;;;3.40;0.70;;;30.40;43.00;;;;;;4326158;33;20466;-36
2021/07/13 02:51:04;;;;;;;13.18;8.63;;;30.60;42.30;;;;;;4313670;33;20071;-36
2021/07/13 02:53:31;;;;;;;2.78;0.80;;;30.70;41.90;;;;;;4301329;33;20137;-37
2021/07/13 02:55:57;;;;;;;2.87;1.10;;;30.90;41.80;;;;;;4313884;33;20249;-37
2021/07/13 02:58:24;;;;;;;3.10;0.60;;;31.10;41.50;;;;;;4296518;33;20515;-36
2021/07/13 03:00:50;;;;;;;7.43;0.77;;;31.30;40.30;;;;;;4281427;33;20086;-37
2021/07/13 03:03:17;;;;;;;4.10;0.70;;;31.40;39.40;;;;;;4243997;33;20485;-37
2021/07/13 03:05:43;;;;;;;2.35;0.70;;;31.40;39.10;;;;;;4253052;33;20096;-36
2021/07/13 03:08:10;;;;;;;3.30;0.60;;;31.40;38.80;;;;;;4241464;33;20076;-35
2021/07/13 03:10:36;;;;;;;2.55;0.70;;;31.40;38.00;;;;;;4213839;33;20084;-36
2021/07/13 03:13:03;;;;;;;4.70;0.90;;;31.40;37.70;;;;;;4185749;34;20104;-35
2021/07/13 03:15:30;;;;;;;2.58;0.62;;;31.50;37.60;;;;;;4185577;34;20152;-35
2021/07/13 03:17:57;;;;;;;4.78;0.80;;;31.70;37.30;;;;;;4209005;34;20580;-35
2021/07/13 03:20:25;;;;;;;4.68;0.75;;;31.90;37.50;;;;;;4197505;34;20611;-37
2021/07/13 03:22:52;;;;;;;4.65;0.90;;;32.00;36.90;;;;;;4209305;34;20173;-37
2021/07/13 03:25:29;;;;;;;4.57;0.75;;;32.10;36.50;;;;;;4197310;34;20530;-37
2021/07/13 03:27:56;;;;;;;2.95;0.70;;;32.10;36.50;;;;;;4199653;34;20171;-37
2021/07/13 03:30:22;;;;;;;2.62;0.60;;;32.20;35.40;;;;;;4200589;34;20530;-37
2021/07/13 03:32:49;;;;;;;3.97;0.70;;;32.20;35.20;;;;;;4214900;33;20089;-44
2021/07/13 03:35:16;;;;;;;3.30;0.80;;;32.40;35.40;;;;;;4193430;33;20088;-35
2021/07/13 03:37:42;;;;;;;2.78;0.85;;;32.50;35.70;;;;;;4190705;34;20069;-38
2021/07/13 03:40:09;;;;;;;7.37;0.82;;;32.60;35.80;;;;;;4183272;33;20100;-36
2021/07/13 03:42:36;;;;;;;1.65;1.02;;;32.80;36.10;;;;;;4254476;33;20080;-36
2021/07/13 03:45:04;;;;;;;0.90;0.60;;;32.90;35.70;;;;;;4258534;33;20076;-36
2021/07/13 03:47:33;;;;;;;8.63;0.80;;;32.90;35.90;;;;;;4270265;33;20068;-36
2021/07/13 03:50:00;;;;;;;2.28;0.60;;;32.80;36.10;;;;;;4259124;33;20095;-38
2021/07/13 03:52:26;;;;;;;3.42;0.77;;;32.80;35.90;;;;;;4301515;33;20068;-37
2021/07/13 03:54:53;;;;;;;2.80;0.77;;;32.90;35.80;;;;;;4313201;33;20063;-37
2021/07/13 03:57:19;;;;;;;5.78;1.00;;;32.90;35.90;;;;;;4313369;33;20117;-36
2021/07/13 03:59:47;;;;;;;2.37;0.90;;;32.90;35.60;;;;;;4313711;33;20095;-35
2021/07/13 04:02:13;;;;;;;0.90;0.60;;;32.90;36.00;;;;;;4313089;33;20067;-37
2021/07/13 04:04:39;;;;;;;4.97;1.00;;;32.80;35.90;;;;;;4312992;33;20548;-38
2021/07/13 04:07:06;;;;;;;4.82;0.68;;;32.60;36.70;;;;;;4313438;33;20090;-36
2021/07/13 04:09:32;;;;;;;6.55;0.80;;;32.50;37.30;;;;;;4326121;33;20075;-37
2021/07/13 04:11:59;;;;;;;10.10;1.25;;;32.40;38.20;;;;;;4313239;33;20158;-38
2021/07/13 04:14:25;;;;;;;5.45;0.77;;;32.20;37.50;;;;;;4301166;33;20102;-37
2021/07/13 04:16:52;;;;;;;3.53;0.70;;;32.20;37.30;;;;;;4301140;33;20129;-37
2021/07/13 04:19:18;;;;;;;3.00;0.93;;;32.20;36.70;;;;;;4313441;33;20174;-37
2021/07/13 04:21:45;;;;;;;2.20;0.70;;;32.20;36.00;;;;;;4312884;33;20183;-37
2021/07/13 04:24:11;;;;;;;4.85;0.75;;;32.20;36.00;;;;;;4313366;33;20059;-37
2021/07/13 04:26:37;;;;;;;1.60;0.50;;;32.30;36.20;;;;;;4301287;33;20071;-37
2021/07/13 04:29:04;;;;;;;7.03;0.82;;;32.40;35.30;;;;;;4313061;33;20586;-37
2021/07/13 04:31:30;;;;;;;6.75;0.68;;;32.40;35.60;;;;;;4313188;33;20068;-37
2021/07/13 04:33:57;;;;;;;4.72;0.75;;;32.50;34.20;;;;;;4312598;33;20079;-38
2021/07/13 04:36:23;;;;;;;7.62;0.82;;;32.50;33.90;;;;;;4327509;33;20081;-37
2021/07/13 04:38:50;;;;;;;1.42;0.80;;;32.50;33.10;;;;;;4327499;33;20479;-37
2021/07/13 04:41:17;;;;;;;6.78;0.80;;;32.60;34.10;;;;;;4315576;33;20063;-37
2021/07/13 04:43:44;;;;;;;1.58;0.60;;;32.80;34.60;;;;;;4315421;33;20067;-37
2021/07/13 04:46:11;;;;;;;7.60;1.02;;;32.80;33.50;;;;;;4327420;33;20069;-36
2021/07/13 04:48:37;;;;;;;3.75;1.00;;;33.00;31.50;;;;;;4318042;33;20523;-37
2021/07/13 04:51:04;;;;;;;6.22;0.70;;;33.20;30.70;;;;;;4344802;32;20689;-36
2021/07/13 04:53:31;;;;;;;2.22;0.80;;;33.30;30.00;;;;;;4344274;33;20062;-36
2021/07/13 04:55:57;;;;;;;3.62;0.50;;;33.50;29.80;;;;;;4344639;32;20069;-37
2021/07/13 04:58:24;;;;;;;2.22;0.60;;;33.70;29.50;;;;;;4354203;32;20523;-36
2021/07/13 05:00:50;;;;;;;1.67;0.60;;;33.90;29.10;;;;;;4359284;32;20066;-36
2021/07/13 05:03:17;;;;;;;3.58;0.60;;;34.00;28.70;;;;;;4359515;32;20511;-36
2021/07/13 05:05:43;;;;;;;1.75;0.43;;;34.10;28.80;;;;;;4345608;32;20109;-38
2021/07/13 05:08:10;;;;;;;3.55;0.50;;;34.00;28.80;;;;;;4359554;32;20106;-37
2021/07/13 05:10:36;;;;;;;5.03;1.17;;;33.90;29.10;;;;;;4358846;32;20054;-38
2021/07/13 05:13:05;;;;;;;3.67;0.70;;;34.00;29.20;;;;;;4359514;32;20513;-37
2021/07/13 05:15:33;;;;;;;3.45;0.70;;;34.20;29.20;;;;;;4358902;32;20089;-36
2021/07/13 05:17:59;;;;;;;4.47;0.98;;;34.40;29.10;;;;;;4358839;32;20066;-37
2021/07/13 05:20:25;;;;;;;12.15;1.00;;;34.50;29.00;;;;;;4358683;32;20074;-36
2021/07/13 05:22:58;;;;;;;2.55;0.95;;;34.50;29.00;;;;;;4345187;32;20105;-36
2021/07/13 05:25:25;;;;;;;4.78;0.60;;;34.60;28.80;;;;;;4358827;32;20559;-36
2021/07/13 05:27:51;;;;;;;1.25;1.15;;;34.70;28.80;;;;;;4358926;32;20592;-38
2021/07/13 05:30:18;;;;;;;3.53;1.00;;;34.80;28.60;;;;;;4358779;32;20071;-37
2021/07/13 05:32:45;;;;;;;0.70;0.60;;;34.70;28.40;;;;;;4345721;32;20070;-36
2021/07/13 05:35:12;;;;;;;1.42;0.80;;;34.70;28.50;;;;;;4359326;32;20086;-37
2021/07/13 05:37:38;;;;;;;2.97;0.70;;;34.60;28.60;;;;;;4358719;32;20058;-36
2021/07/13 05:40:06;;;;;;;5.53;0.95;;;34.60;28.70;;;;;;4358768;32;20586;-38
2021/07/13 05:42:32;;;;;;;0.80;0.70;;;34.60;29.00;;;;;;4345100;32;20619;-37
2021/07/13 05:45:01;;;;;;;3.05;0.80;;;34.80;28.80;;;;;;4332638;32;20471;-38
2021/07/13 05:47:27;;;;;;;3.33;0.73;;;34.80;28.60;;;;;;4358672;32;20078;-38
2021/07/13 05:49:54;;;;;;;3.20;0.90;;;34.90;28.70;;;;;;4344201;32;20101;-38
2021/07/13 05:52:20;;;;;;;0.50;0.40;;;35.10;28.70;;;;;;4345054;32;20070;-38
2021/07/13 05:54:47;;;;;;;1.25;0.73;;;35.10;27.80;;;;;;4358729;32;20086;-37
2021/07/13 05:57:14;;;;;;;0.77;0.50;;;35.00;27.60;;;;;;4323862;33;20082;-38
2021/07/13 05:59:40;;;;;;;2.62;1.12;;;34.90;27.70;;;;;;4311503;33;20076;-37
2021/07/13 06:02:07;;;;;;;3.85;0.50;;;34.60;27.80;;;;;;4299872;33;20138;-37
2021/07/13 06:04:34;;;;;;;2.03;0.55;;;34.40;28.10;;;;;;4299986;33;20078;-39
2021/07/13 06:07:00;;;;;;;0.80;0.57;;;34.30;28.20;;;;;;4267797;33;20222;-36
2021/07/13 06:09:27;;;;;;;1.33;0.73;;;34.30;28.30;;;;;;4268320;33;20068;-36
2021/07/13 06:11:58;;;;;;;2.60;0.75;;;34.30;28.30;;;;;;4256335;33;20063;-37
2021/07/13 06:14:25;;;;;;;2.47;0.95;;;34.50;28.40;;;;;;4268445;33;20466;-38
2021/07/13 06:16:51;;;;;;;3.10;0.80;;;34.70;28.20;;;;;;4256370;33;20145;-37
2021/07/13 06:19:18;;;;;;;7.03;0.80;;;35.00;27.80;;;;;;4268624;33;20119;-38
2021/07/13 06:21:44;;;;;;;2.17;0.75;;;35.20;27.90;;;;;;4268649;33;20087;-38
2021/07/13 06:24:12;;;;;;;2.25;0.80;;;35.40;27.60;;;;;;4256167;33;20521;-37
2021/07/13 06:26:38;;;;;;;1.90;1.00;;;35.50;27.50;;;;;;4268238;33;20096;-37
2021/07/13 06:29:05;;;;;;;5.22;0.90;;;35.60;27.50;;;;;;4237369;33;20096;-38
2021/07/13 06:31:32;;;;;;;1.08;0.70;;;35.70;27.40;;;;;;4253288;33;20095;-38
2021/07/13 06:33:58;;;;;;;0.40;0.32;;;35.80;26.80;;;;;;4253506;33;20199;-38
2021/07/13 06:36:25;;;;;;;3.62;0.70;;;35.80;26.40;;;;;;4241809;33;20084;-37
2021/07/13 06:38:51;;;;;;;0.98;0.60;;;35.80;26.50;;;;;;4265915;33;20070;-37
2021/07/13 06:41:18;;;;;;;0.35;0.32;;;35.90;26.60;;;;;;4268132;33;20064;-39
2021/07/13 06:43:44;;;;;;;2.67;0.50;;;35.80;26.90;;;;;;4267922;33;20208;-39
2021/07/13 06:46:11;;;;;;;4.53;0.90;;;35.80;26.70;;;;;;4267773;33;20080;-39
2021/07/13 06:48:37;;;;;;;7.20;1.05;;;35.70;26.70;;;;;;4267840;33;20067;-37
2021/07/13 06:51:04;;;;;;;3.05;0.90;;;35.70;26.90;;;;;;4267688;33;20583;-38
2021/07/13 06:53:30;;;;;;;4.05;0.62;;;35.80;26.90;;;;;;4268045;33;20155;-38
2021/07/13 06:55:56;;;;;;;2.42;0.80;;;35.90;26.40;;;;;;4267571;33;20100;-37
2021/07/13 06:58:23;;;;;;;3.65;0.70;;;36.20;26.30;;;;;;4286445;33;20079;-38
2021/07/13 07:00:49;;;;;;;4.28;0.70;;;36.50;26.00;;;;;;4296743;33;20086;-37
2021/07/13 07:03:16;;;;;;;7.57;0.95;;;36.60;25.90;;;;;;4299074;33;20078;-38
2021/07/13 07:05:43;;;;;;;0.77;0.68;;;36.70;25.80;;;;;;4301476;33;20063;-38
2021/07/13 07:08:09;;;;;;;4.80;1.02;;;36.60;25.80;;;;;;4339627;33;20056;-37
2021/07/13 07:10:36;;;;;;;5.43;0.82;;;36.50;25.90;;;;;;4332218;33;20138;-37
2021/07/13 07:13:03;;;;;;;5.82;0.82;;;36.40;26.10;;;;;;4346117;33;20075;-37
2021/07/13 07:15:29;;;;;;;2.85;0.90;;;36.20;26.40;;;;;;4345866;33;20077;-39
2021/07/13 07:17:56;;;;;;;3.22;0.93;;;36.00;26.50;;;;;;4345611;33;20230;-38
2021/07/13 07:20:27;;;;;;;2.05;0.90;;;35.80;26.70;;;;;;4332078;33;20059;-38
2021/07/13 07:22:55;;;;;;;5.45;0.80;;;35.80;26.80;;;;;;4332076;33;20534;-37
2021/07/13 07:25:21;;;;;;;3.08;0.90;;;35.70;26.90;;;;;;4345901;33;20055;-38
2021/07/13 07:27:48;;;;;;;1.70;0.85;;;35.70;27.00;;;;;;4345467;33;20114;-38
2021/07/13 07:30:17;;;;;;;6.50;1.00;;;35.70;27.20;;;;;;4345851;33;20458;-38
2021/07/13 07:32:46;;;;;;;8.70;1.37;;;35.80;27.20;;;;;;4332014;33;20120;-38
2021/07/13 07:35:13;;;;;;;2.22;1.12;;;36.00;27.30;;;;;;4345803;33;20559;-38
2021/07/13 07:37:40;;;;;;;2.58;1.10;;;36.10;27.20;;;;;;4345258;33;20437;-38
2021/07/13 07:40:09;;;;;;;3.85;1.02;;;36.10;27.40;;;;;;4345316;33;20082;-38
2021/07/13 07:42:36;;;;;;;1.92;0.90;;;36.10;27.30;;;;;;4345827;33;20078;-38
2021/07/13 07:45:04;;;;;;;2.28;1.05;;;36.10;27.20;;;;;;4345840;33;20165;-37
2021/07/13 07:47:31;;;;;;;9.18;1.20;;;36.20;27.40;;;;;;4331960;33;20143;-37
2021/07/13 07:49:57;;;;;;;8.35;1.30;;;36.40;27.40;;;;;;4345376;33;20136;-37
2021/07/13 07:52:24;;;;;;;4.93;1.67;;;36.40;27.30;;;;;;4345666;33;20057;-38
2021/07/13 07:54:50;;;;;;;5.22;2.25;;;36.20;27.50;;;;;;4345471;33;20079;-38
2021/07/13 07:57:17;;;;;;;3.30;1.40;;;36.00;27.80;;;;;;4318332;33;20098;-38
2021/07/13 07:59:43;;;;;;;3.12;1.42;;;36.00;28.20;;;;;;4343011;33;20545;-38
2021/07/13 08:02:09;;;;;;;5.00;1.70;;;36.20;28.30;;;;;;4342536;33;20118;-38
2021/07/13 08:04:36;;;;;;;3.58;2.03;;;36.40;28.10;;;;;;4343083;33;20202;-38
2021/07/13 08:07:03;;;;;;;3.65;1.62;;;36.50;28.10;;;;;;4342492;33;20056;-38
2021/07/13 08:09:29;;;;;;;4.78;2.03;;;36.50;28.30;;;;;;4342496;33;20063;-38
2021/07/13 08:11:56;;;;;;;6.75;2.40;;;36.50;28.40;;;;;;4342807;33;20095;-38
2021/07/13 08:14:22;;;;;;;5.75;2.37;;;36.60;28.30;;;;;;4342597;32;20071;-37
2021/07/13 08:16:49;;;;;;;3.83;1.92;;;36.70;28.20;;;;;;4342817;33;20135;-38
2021/07/13 08:19:16;;;;;;;5.55;1.90;;;36.70;28.20;;;;;;4342425;33;20059;-38
2021/07/13 08:21:43;;;;;;;4.43;1.92;;;36.70;28.00;;;;;;4318317;33;20101;-37
2021/07/13 08:24:11;;;;;;;1.75;1.30;;;36.90;28.00;;;;;;4342840;33;20082;-37
2021/07/13 08:26:38;;;;;;;5.72;2.10;;;36.90;28.00;;;;;;4342852;33;20070;-37
2021/07/13 08:29:05;;;;;;;3.95;2.00;;;36.80;27.80;;;;;;4342198;33;20604;-37
2021/07/13 08:31:31;;;;;;;4.68;2.30;;;36.90;27.90;;;;;;4342347;33;20140;-37
2021/07/13 08:33:58;;;;;;;6.72;2.15;;;37.00;27.70;;;;;;4333378;32;20063;-37
2021/07/13 08:36:24;;;;;;;2.50;1.87;;;37.10;27.70;;;;;;4359982;32;20073;-37
2021/07/13 08:38:51;;;;;;;4.32;2.00;;;37.10;27.50;;;;;;4359661;32;20059;-37
2021/07/13 08:41:23;;;;;;;6.40;1.90;;;37.10;27.70;;;;;;4359367;32;20088;-38
2021/07/13 08:43:52;;;;;;;2.92;1.70;;;37.10;27.70;;;;;;4345809;32;20561;-38
2021/07/13 08:46:19;;;;;;;4.20;1.77;;;37.40;27.80;;;;;;4345353;32;20516;-38
2021/07/13 08:48:47;;;;;;;1.77;0.98;;;37.50;27.60;;;;;;4359507;32;20092;-38
2021/07/13 08:51:13;;;;;;;1.20;1.05;;;37.40;27.50;;;;;;4359535;32;20063;-37
2021/07/13 08:53:40;;;;;;;3.15;1.37;;;37.20;27.90;;;;;;4359192;32;20472;-38
2021/07/13 08:56:06;;;;;;;3.12;2.55;;;37.10;27.80;;;;;;4359288;32;20073;-38
2021/07/13 08:58:32;;;;;;;5.00;1.98;;;37.10;28.00;;;;;;4348877;32;20165;-38
2021/07/13 09:00:59;;;;;;;5.97;2.42;;;37.20;28.10;;;;;;4344375;32;20074;-37
2021/07/13 09:03:30;;;;;;;2.90;1.17;;;37.40;27.80;;;;;;4344302;32;20144;-38
2021/07/13 09:05:57;;;;;;;5.82;1.50;;;37.60;27.50;;;;;;4344566;32;20081;-39
2021/07/13 09:08:35;;;;;;;8.30;2.40;;;37.60;27.50;;;;;;4357223;32;20146;-38
2021/07/13 09:11:24;;;;;;;1.20;0.75;;;37.50;27.60;;;;;;4359180;32;20154;-38
2021/07/13 09:13:54;;;;;;;2.97;1.37;;;37.50;27.60;;;;;;4359049;32;20455;-38
2021/07/13 09:16:23;;;;;;;2.12;1.40;;;37.50;27.80;;;;;;4359264;32;20175;-38
2021/07/13 09:18:57;;;;;;;3.60;1.17;;;37.20;27.80;;;;;;4358918;32;20102;-38
2021/07/13 09:21:24;;;;;;;;;;;37.00;28.00;;;;;;4345530;32;20170;-38
2021/07/13 09:24:08;;;;;;;7.87;1.80;;;36.90;28.30;;;;;;4358865;32;19957;-37
2021/07/13 09:26:54;;;;;;;;;;;37.00;28.40;;;;;;4358853;32;20071;-37
2021/07/13 09:29:40;;;;;;;5.28;2.17;;;37.10;28.20;;;;;;4358969;32;19980;-37
2021/07/13 09:32:29;;;;;;;6.35;2.12;;;37.30;28.20;;;;;;4346614;32;20078;-37
2021/07/13 09:35:01;;;;;;;6.12;2.62;;;37.40;28.10;;;;;;4359157;32;20080;-38
2021/07/13 09:37:38;;;;;;;2.53;2.30;;;37.40;27.90;;;;;;4358819;32;20062;-37
2021/07/13 09:40:11;;;;;;;4.10;2.37;;;37.40;28.10;;;;;;4359150;32;20193;-37
2021/07/13 09:42:45;;;;;;;5.20;2.10;;;37.50;28.00;;;;;;4358890;32;20117;-37
2021/07/13 09:45:32;;;;;;;1.40;1.12;;;37.60;27.90;;;;;;4313913;33;20126;-37
2021/07/13 09:48:10;;;;;;;3.00;2.12;;;37.80;27.80;;;;;;4326573;33;20073;-37
2021/07/13 09:50:49;;;;;;;5.35;3.20;;;37.40;28.00;;;;;;4326353;33;20087;-37
2021/07/13 09:53:17;;;;;;;11.85;3.60;;;37.20;28.40;;;;;;4326209;33;20154;-37
2021/07/13 09:55:45;;;;;;;10.70;3.92;;;37.20;28.50;;;;;;4282341;33;20088;-37
2021/07/13 09:58:13;;;;;;;3.60;3.00;;;37.30;28.50;;;;;;4282869;33;20151;-38
2021/07/13 10:00:40;;;;;;;5.15;1.98;;;37.50;28.30;;;;;;4239849;33;20076;-38
2021/07/13 10:03:09;;;;;;;3.08;2.08;;;37.50;28.20;;;;;;4240289;33;20077;-38
2021/07/13 10:05:36;;;;;;;3.30;2.33;;;37.20;28.10;;;;;;4216859;33;20249;-37
2021/07/13 10:08:03;;;;;;;2.92;2.30;;;37.20;28.30;;;;;;4239967;33;20108;-37
2021/07/13 10:10:29;;;;;;;2.28;1.77;;;37.00;28.50;;;;;;4240226;33;20065;-37
2021/07/13 10:12:56;;;;;;;4.53;2.62;;;36.70;28.80;;;;;;4228296;33;20070;-37
2021/07/13 10:15:22;;;;;;;6.82;2.62;;;36.50;28.90;;;;;;4230591;33;20508;-37
2021/07/13 10:17:49;;;;;;;4.03;2.15;;;36.20;29.20;;;;;;4253783;33;20616;-38
2021/07/13 10:20:17;;;;;;;3.62;2.65;;;36.20;29.40;;;;;;4242408;33;20545;-38
2021/07/13 10:22:45;;;;;;;7.57;3.35;;;36.10;29.40;;;;;;4230223;33;20088;-39
2021/07/13 10:25:12;;;;;;;2.50;1.50;;;36.10;29.50;;;;;;4242060;33;20521;-37
2021/07/13 10:27:52;;;;;;;5.22;1.95;;;36.30;29.40;;;;;;4267270;33;20064;-36
2021/07/13 10:30:21;;;;;;;2.08;1.45;;;36.40;29.20;;;;;;4271538;33;20064;-38
2021/07/13 10:32:48;;;;;;;1.87;0.98;;;36.50;29.10;;;;;;4282159;33;20154;-37
2021/07/13 10:35:22;;;;;;;3.17;2.87;;;36.50;29.10;;;;;;4282061;33;20064;-37
2021/07/13 10:37:52;;;;;;;1.73;1.40;;;36.50;29.10;;;;;;4299393;33;20066;-37
2021/07/13 10:40:28;;;;;;;4.30;2.50;;;36.60;29.20;;;;;;4296494;33;20098;-37
2021/07/13 10:43:04;;;;;;;1.90;1.37;;;36.60;29.00;;;;;;4296442;33;20080;-37
2021/07/13 10:45:35;;;;;;;1.37;1.05;;;36.80;28.90;;;;;;4296897;33;20066;-37
2021/07/13 10:48:17;;;;;;;4.60;2.15;;;36.70;28.90;;;;;;4297063;33;20204;-37
2021/07/13 10:51:03;;;;;;;2.35;1.45;;;36.50;29.00;;;;;;4296644;33;20206;-38
2021/07/13 10:53:43;;;;;;;11.00;3.30;;;36.50;29.10;;;;;;4296623;33;20084;-38
2021/07/13 10:56:19;;;;;;;6.68;3.00;;;36.90;29.20;;;;;;4296809;33;20080;-38
2021/07/13 10:58:51;;;;;;;3.95;3.12;;;36.90;28.90;;;;;;4296515;33;20099;-37
2021/07/13 11:01:26;;;;;;;43.53;9.15;;;36.60;28.90;;;;;;4296796;33;20162;-37
2021/07/13 11:04:00;;;;;;;27.50;7.43;;;36.40;31.30;;;;;;4296708;33;20629;-36
2021/07/13 11:06:55;;;;;;;21.73;5.35;;;35.40;32.50;;;;;;4296939;33;20091;-36
2021/07/13 11:09:27;;;;;;;19.55;5.72;;;34.20;34.00;;;;;;4311261;33;20516;-37
2021/07/13 11:12:15;;;;;;;15.40;3.47;;;33.50;35.30;;;;;;4323551;33;20056;-35
2021/07/13 11:14:53;;;;;;;10.43;3.78;;;33.20;36.40;;;;;;4326947;33;20071;-37
2021/07/13 11:17:21;;;;;;;13.50;5.68;;;32.60;37.20;;;;;;4327981;33;20087;-37
2021/07/13 11:19:48;;;;;;;7.28;2.08;;;32.20;37.30;;;;;;4327708;33;20070;-36
2021/07/13 11:22:18;;;;;;;8.02;2.75;;;32.10;37.30;;;;;;4328204;33;20483;-36
2021/07/13 11:24:45;;;;;;;12.52;4.82;;;32.00;37.20;;;;;;4328514;33;20067;-37
2021/07/13 11:27:11;;;;;;;5.50;3.33;;;31.80;36.90;;;;;;4327819;33;20524;-37
2021/07/13 11:29:37;;;;;;;7.37;3.08;;;31.60;37.10;;;;;;4328116;33;20153;-37
2021/07/13 11:32:06;;;;;;;6.82;2.85;;;31.50;37.50;;;;;;4326858;33;20086;-37
2021/07/13 11:34:37;;;;;;;8.68;4.95;;;31.40;37.80;;;;;;4326393;33;20083;-36
2021/07/13 11:37:05;;;;;;;13.45;4.53;;;31.30;38.10;;;;;;4314627;33;20193;-37
2021/07/13 11:39:34;;;;;;;9.95;3.42;;;31.20;38.70;;;;;;4327789;33;20062;-36
2021/07/13 11:42:06;;;;;;;9.57;3.33;;;31.00;38.90;;;;;;4327582;33;20241;-36
2021/07/13 11:44:34;;;;;;;5.55;4.10;;;30.90;38.60;;;;;;4328105;33;20147;-36
2021/07/13 11:47:01;;;;;;;3.08;1.83;;;30.80;37.60;;;;;;4327749;33;20073;-37
2021/07/13 11:49:32;;;;;;;7.47;2.42;;;30.70;37.50;;;;;;4330586;33;20158;-36
2021/07/13 11:52:00;;;;;;;3.70;1.83;;;30.70;37.30;;;;;;4330281;33;20201;-37
2021/07/13 11:54:36;;;;;;;8.65;2.58;;;30.70;37.20;;;;;;4329284;33;20271;-37
2021/07/13 11:57:05;;;;;;;9.85;1.40;;;30.70;36.60;;;;;;4330244;33;20102;-37
2021/07/13 11:59:32;;;;;;;2.22;1.80;;;30.70;36.50;;;;;;4330301;33;20516;-37
2021/07/13 12:02:07;;;;;;;3.95;2.00;;;30.60;36.30;;;;;;4330397;33;20074;-37
2021/07/13 12:04:39;;;;;;;3.37;2.35;;;30.60;36.80;;;;;;4316774;33;20549;-37
2021/07/13 12:07:06;;;;;;;7.20;3.05;;;30.60;36.70;;;;;;4319148;33;20630;-37
2021/07/13 12:09:37;;;;;;;1.83;1.50;;;30.50;36.80;;;;;;4316802;33;20066;-37
2021/07/13 12:12:15;;;;;;;3.72;2.95;;;30.50;36.90;;;;;;4330402;33;20078;-37
2021/07/13 12:14:50;;;;;;;3.62;1.67;;;30.50;37.00;;;;;;4329888;33;20100;-37
2021/07/13 12:17:19;;;;;;;2.33;1.77;;;30.50;36.80;;;;;;4330361;33;20194;-37
2021/07/13 12:19:46;;;;;;;1.48;1.02;;;30.60;36.80;;;;;;4293208;33;20146;-37
2021/07/13 12:22:19;;;;;;;0.85;0.50;;;30.70;36.90;;;;;;4292595;33;20067;-37
2021/07/13 12:24:47;;;;;;;1.83;1.08;;;30.90;36.70;;;;;;4330004;33;20067;-37
2021/07/13 12:27:18;;;;;;;5.37;2.10;;;31.10;36.40;;;;;;4305240;33;20071;-37
2021/07/13 12:29:50;;;;;;;1.80;0.80;;;31.30;36.00;;;;;;4316621;33;20067;-37
2021/07/13 12:32:22;;;;;;;5.05;2.60;;;31.40;35.80;;;;;;4330159;33;20632;-37
2021/07/13 12:34:51;;;;;;;8.50;1.65;;;31.70;35.70;;;;;;4329773;33;20425;-38
2021/07/13 12:37:20;;;;;;;7.85;1.90;;;31.90;35.40;;;;;;4329886;33;20077;-38
2021/07/13 12:39:49;;;;;;;3.33;1.58;;;31.90;36.00;;;;;;4329958;33;20122;-36
2021/07/13 12:42:23;;;;;;;5.57;2.15;;;31.90;35.00;;;;;;4316141;33;20524;-37
2021/07/13 12:44:57;;;;;;;4.57;2.25;;;31.90;35.10;;;;;;4330109;33;20083;-37
2021/07/13 12:47:38;;;;;;;2.55;1.30;;;31.90;35.10;;;;;;4329729;33;20530;-36
2021/07/13 12:50:15;;;;;;;2.20;1.35;;;32.10;35.40;;;;;;4283330;33;20075;-37
2021/07/13 12:52:57;;;;;;;1.50;0.98;;;32.20;35.30;;;;;;4271703;33;20075;-37
2021/07/13 12:55:27;;;;;;;4.05;1.17;;;32.20;35.60;;;;;;4283622;33;20131;-37
2021/07/13 12:57:53;;;;;;;13.27;1.23;;;32.20;35.50;;;;;;4289869;33;20100;-37